»·PEaware :: N244WB KFSM-KOKC

N244WB :: KFSM-KOKC

FLIGHT INFORMATION

Flight Status: Arrived
Operator: Privately registered:
United States
More flights under this callsign
Pilot: Logan D. (20254)
Aircraft: ECLIPSE 500
(EA50)
More flights by this aircraft type
Origin: KFSM Ft Smith Regl
United States
Destination: KOKC Will Rogers World
United States
More flights between these airports :: More routes between these airports
Route: KFSM NAKAE TWSTR KOKC
File this flight plan on PilotEdge
Remarks:
Altitude:
(Current/Filed)
12,500ft
Speed:
(Current/Filed)
250kts
Departed: 18-Sep-19 10:43 AM
Arrived: 18-Sep-19 11:27 AM
Distance/Time
Traveled:
157nm/0:44
Distance/Time
To Go:
Arrived

Flight Plot

Page will automatically refresh every two minutes.

Flight plan parsing failed; only flown route is shown


Map Options




Map Legend


Flown Route
Filed Route
Departure Airport
Arrival Airport
Navaid (VOR, NDB)
Fix

Horizontal Profiles

Position Reports

Time Latitude Longitude Heading Altitude Ground
Speed
18-Sep-19 10:30 35.336539 -94.373305 350 449ft 0kts
18-Sep-19 10:31 35.336539 -94.373305 350 449ft 0kts
18-Sep-19 10:33 35.336539 -94.373305 350 449ft 0kts
18-Sep-19 10:33 35.336539 -94.373305 350 449ft 0kts
18-Sep-19 10:34 35.336539 -94.373305 350 449ft 0kts
18-Sep-19 10:35 35.336539 -94.373305 350 449ft 0kts
18-Sep-19 10:36 35.336539 -94.373305 350 449ft 0kts
18-Sep-19 10:37 35.336539 -94.373305 350 449ft 0kts
18-Sep-19 10:38 35.336607 -94.372281 90 447ft 4kts
18-Sep-19 10:39 35.336378 -94.368396 80 439ft 18kts
18-Sep-19 10:40 35.337517 -94.359594 80 429ft 22kts
18-Sep-19 10:41 35.337950 -94.355654 96 429ft 3kts
18-Sep-19 10:42 35.336349 -94.359845 261 429ft 67kts
18-Sep-19 10:43 35.331100 -94.398487 261 1563ft 151kts
18-Sep-19 10:44 35.322329 -94.451799 256 3918ft 175kts
18-Sep-19 10:45 35.311917 -94.506472 256 5875ft 203kts
18-Sep-19 10:46 35.298641 -94.578095 255 8106ft 227kts
18-Sep-19 10:47 35.284217 -94.656578 254 10318ft 249kts
18-Sep-19 10:48 35.268573 -94.741879 254 12407ft 267kts
18-Sep-19 10:49 35.251921 -94.832460 255 12490ft 273kts
18-Sep-19 10:50 35.240102 -94.924766 270 12487ft 279kts
18-Sep-19 10:51 35.243928 -95.019078 270 12482ft 278kts
18-Sep-19 10:52 35.238917 -95.112713 262 12481ft 277kts
18-Sep-19 10:53 35.241855 -95.207505 269 12481ft 278kts
18-Sep-19 10:54 35.243464 -95.301381 268 12481ft 278kts
18-Sep-19 10:55 35.244463 -95.396217 268 12487ft 277kts
18-Sep-19 10:56 35.245266 -95.491190 268 12493ft 278kts
18-Sep-19 10:57 35.245963 -95.585657 268 12493ft 278kts
18-Sep-19 10:58 35.246583 -95.680387 267 12490ft 277kts
18-Sep-19 10:59 35.247121 -95.774937 267 12487ft 278kts
18-Sep-19 11:00 35.247562 -95.869310 267 12487ft 277kts
18-Sep-19 11:01 35.247904 -95.963792 267 12487ft 277kts
18-Sep-19 11:02 35.248146 -96.057943 267 12487ft 277kts
18-Sep-19 11:03 35.248289 -96.152870 267 12487ft 277kts
18-Sep-19 11:04 35.248331 -96.247497 267 12487ft 278kts
18-Sep-19 11:05 35.248270 -96.342105 267 12470ft 278kts
18-Sep-19 11:06 35.248110 -96.436718 267 12471ft 278kts
18-Sep-19 11:07 35.224060 -96.522581 241 12471ft 273kts
18-Sep-19 11:08 35.204431 -96.612804 260 12508ft 276kts
18-Sep-19 11:09 35.214279 -96.704839 290 12508ft 282kts
18-Sep-19 11:10 35.243886 -96.793891 289 12360ft 287kts
18-Sep-19 11:11 35.260266 -96.880779 270 10749ft 225kts
18-Sep-19 11:12 35.264003 -96.963693 271 10015ft 287kts
18-Sep-19 11:13 35.268493 -97.064786 272 10010ft 301kts
18-Sep-19 11:14 35.285342 -97.163096 314 9353ft 302kts
18-Sep-19 11:15 35.338273 -97.229696 314 7832ft 259kts
18-Sep-19 11:16 35.387568 -97.292702 313 6151ft 252kts
18-Sep-19 11:17 35.435708 -97.354616 313 6018ft 252kts
18-Sep-19 11:18 35.484162 -97.417119 313 5923ft 257kts
18-Sep-19 11:19 35.532520 -97.479597 313 5017ft 236kts
18-Sep-19 11:20 35.555454 -97.543618 268 4536ft 185kts
18-Sep-19 11:21 35.542055 -97.596052 180 3910ft 181kts
18-Sep-19 11:22 35.495443 -97.591148 174 3310ft 147kts
18-Sep-19 11:23 35.456077 -97.589621 177 2299ft 137kts
18-Sep-19 11:24 35.420025 -97.589159 178 1643ft 132kts
18-Sep-19 11:25 35.394629 -97.588907 179 1284ft 41kts
18-Sep-19 11:26 35.393177 -97.587420 359 1286ft 12kts
18-Sep-19 11:27 35.396995 -97.587311 41 1280ft 9kts
18-Sep-19 11:28 35.396562 -97.585015 43 1279ft 6kts
18-Sep-19 11:29 35.396314 -97.584804 278 1280ft 0kts
18-Sep-19 11:30 35.396314 -97.584804 278 1280ft 0kts
18-Sep-19 11:31 35.396314 -97.584804 278 1280ft 0kts
18-Sep-19 11:32 35.396314 -97.584804 278 1280ft 0kts
18-Sep-19 11:33 35.396314 -97.584804 278 1280ft 0kts
18-Sep-19 11:34 35.396314 -97.584804 278 1280ft 0kts
18-Sep-19 11:35 35.396314 -97.584804 278 1280ft 0kts
18-Sep-19 11:36 35.396314 -97.584804 278 1280ft 0kts
18-Sep-19 11:37 35.396314 -97.584804 278 1280ft 0kts
18-Sep-19 11:38 35.396314 -97.584804 278 1280ft 0kts
18-Sep-19 11:39 35.396314 -97.584804 278 1280ft 0kts
18-Sep-19 11:40 35.396314 -97.584804 278 1280ft 0kts
18-Sep-19 11:41 35.396314 -97.584804 278 1280ft 0kts

Navigation Log

Ident Type
Flight plan parsing failed, navigation log unavailable